createdAt,value
2022-12-31T00:01:36.781Z,81.78
2022-12-31T00:04:04.474Z,79.78
2022-12-31T00:06:34.847Z,78.50
2022-12-31T00:09:06.644Z,80.10
2022-12-31T00:11:35.130Z,79.94
2022-12-31T00:14:03.120Z,81.51
2022-12-31T00:16:33.298Z,82.07
2022-12-31T00:19:01.882Z,84.90
2022-12-31T00:21:32.038Z,85.63
2022-12-31T00:23:59.588Z,87.56
2022-12-31T00:26:30.586Z,86.84
2022-12-31T00:28:59.329Z,86.83
2022-12-31T00:31:28.951Z,89.66
2022-12-31T00:33:56.975Z,87.26
2022-12-31T00:36:27.266Z,90.19
2022-12-31T00:38:56.719Z,91.47
2022-12-31T00:41:25.422Z,91.80
2022-12-31T00:43:54.192Z,95.05
2022-12-31T00:46:22.643Z,91.42
2022-12-31T00:48:50.382Z,95.88
2022-12-31T00:51:19.974Z,92.16
2022-12-31T00:53:47.605Z,90.79
2022-12-31T00:56:17.649Z,90.05
2022-12-31T00:58:45.831Z,89.96
2022-12-31T01:01:18.251Z,89.07
2022-12-31T01:03:47.348Z,88.96
2022-12-31T01:06:15.055Z,93.23
2022-12-31T01:08:42.462Z,92.00
2022-12-31T01:11:22.491Z,91.63
2022-12-31T01:13:52.083Z,90.95
2022-12-31T01:16:23.898Z,90.93
2022-12-31T01:18:52.075Z,91.00
2022-12-31T01:21:20.482Z,91.31
2022-12-31T01:23:48.146Z,89.95
2022-12-31T01:26:17.569Z,93.71
2022-12-31T01:28:45.003Z,96.13
2022-12-31T01:31:14.221Z,91.85
2022-12-31T01:33:43.745Z,92.33
2022-12-31T01:36:14.466Z,95.76
2022-12-31T01:38:42.695Z,91.80
2022-12-31T01:41:12.863Z,90.37
2022-12-31T01:43:46.685Z,89.32
2022-12-31T01:46:21.722Z,87.82
2022-12-31T01:48:53.556Z,87.51
2022-12-31T01:51:21.983Z,88.95
2022-12-31T01:53:51.325Z,90.13
2022-12-31T01:56:20.198Z,90.13
2022-12-31T01:58:50.507Z,91.04
2022-12-31T02:01:23.285Z,90.77
2022-12-31T02:03:52.277Z,91.86
2022-12-31T02:06:22.672Z,88.82
2022-12-31T02:08:50.498Z,91.19
2022-12-31T02:11:25.549Z,90.02
2022-12-31T02:13:58.274Z,95.76
2022-12-31T02:16:33.464Z,96.62
2022-12-31T02:19:13.576Z,94.40
2022-12-31T02:21:53.487Z,94.72
2022-12-31T02:24:45.541Z,90.83
2022-12-31T02:27:21.698Z,90.35
2022-12-31T02:30:13.697Z,92.34
2022-12-31T02:32:59.003Z,91.27
2022-12-31T02:35:31.012Z,88.90
2022-12-31T02:38:03.622Z,89.93
2022-12-31T02:40:31.287Z,91.41
2022-12-31T02:42:58.714Z,89.74
2022-12-31T02:45:34.374Z,89.79
2022-12-31T02:48:14.042Z,87.92
2022-12-31T02:50:55.337Z,91.90
2022-12-31T02:53:39.925Z,89.53
2022-12-31T02:56:17.422Z,90.33
2022-12-31T02:59:15.337Z,90.69
2022-12-31T03:02:05.276Z,90.62
2022-12-31T03:04:35.028Z,88.20
2022-12-31T03:07:05.166Z,88.47
2022-12-31T03:09:32.846Z,86.97
2022-12-31T03:12:18.517Z,88.01
2022-12-31T03:14:45.938Z,88.33
2022-12-31T03:17:14.989Z,90.50
2022-12-31T03:20:00.253Z,88.92
2022-12-31T03:22:30.790Z,87.78
2022-12-31T03:25:18.874Z,88.58
2022-12-31T03:27:47.358Z,89.77
2022-12-31T03:30:16.349Z,87.97
2022-12-31T03:32:46.340Z,90.31
2022-12-31T03:35:15.638Z,89.55
2022-12-31T03:37:44.398Z,89.16
2022-12-31T03:40:14.225Z,89.12
2022-12-31T03:42:42.215Z,91.21
2022-12-31T03:45:11.788Z,89.31
2022-12-31T03:47:39.825Z,90.01
2022-12-31T03:50:11.198Z,89.87
2022-12-31T03:52:38.976Z,89.81
2022-12-31T03:55:07.825Z,88.55
2022-12-31T03:57:35.379Z,88.14
2022-12-31T04:00:03.234Z,89.87
2022-12-31T04:02:30.698Z,88.44
2022-12-31T04:04:58.145Z,87.53
2022-12-31T04:07:27.018Z,88.27
2022-12-31T04:09:54.508Z,88.34
2022-12-31T04:12:21.945Z,88.81
2022-12-31T04:14:49.423Z,89.46
2022-12-31T04:17:16.840Z,89.76
2022-12-31T04:19:44.256Z,90.80
2022-12-31T04:22:11.666Z,90.36
2022-12-31T04:24:40.404Z,90.76
2022-12-31T04:27:08.254Z,88.90
2022-12-31T04:29:36.312Z,89.31
2022-12-31T04:32:04.230Z,89.28
2022-12-31T04:34:31.807Z,92.63
2022-12-31T04:36:59.217Z,89.79
2022-12-31T04:39:26.792Z,89.40
2022-12-31T04:41:55.640Z,91.23
2022-12-31T04:44:23.354Z,90.10
2022-12-31T04:46:50.814Z,90.03
2022-12-31T04:49:18.466Z,90.25
2022-12-31T04:51:45.933Z,89.43
2022-12-31T04:54:13.354Z,92.55
2022-12-31T04:56:40.742Z,91.19
2022-12-31T04:59:10.354Z,90.43
2022-12-31T05:01:38.596Z,92.71
2022-12-31T05:04:06.905Z,92.30
2022-12-31T05:06:34.319Z,90.45
2022-12-31T05:09:01.944Z,89.96
2022-12-31T05:11:29.393Z,90.89
2022-12-31T05:13:56.809Z,91.51
2022-12-31T05:16:25.559Z,90.46
2022-12-31T05:18:52.970Z,89.88
2022-12-31T05:21:22.083Z,91.38
2022-12-31T05:23:50.022Z,90.76
2022-12-31T05:26:17.941Z,91.50
2022-12-31T05:28:45.635Z,92.48
2022-12-31T05:31:13.135Z,92.27
2022-12-31T05:33:41.953Z,95.77
2022-12-31T05:36:09.669Z,93.63
2022-12-31T05:38:38.252Z,95.84
2022-12-31T05:41:08.142Z,96.01
2022-12-31T05:43:36.027Z,97.62
2022-12-31T05:46:04.826Z,97.49
2022-12-31T05:48:33.292Z,97.14
2022-12-31T05:51:02.072Z,98.23
2022-12-31T05:53:29.532Z,97.14
2022-12-31T05:55:56.954Z,97.22
2022-12-31T05:58:24.436Z,98.73
2022-12-31T06:00:52.665Z,96.70
2022-12-31T06:03:20.212Z,97.03
2022-12-31T06:05:47.878Z,96.90
2022-12-31T06:08:16.684Z,98.20
2022-12-31T06:10:44.126Z,99.45
2022-12-31T06:13:11.604Z,98.43
2022-12-31T06:15:40.399Z,98.72
2022-12-31T06:18:07.928Z,100.00
2022-12-31T06:20:37.432Z,100.00
2022-12-31T06:23:05.547Z,100.00
2022-12-31T06:25:36.944Z,97.65
2022-12-31T06:28:05.259Z,100.00
2022-12-31T06:30:32.904Z,99.96
2022-12-31T06:33:00.329Z,98.20
2022-12-31T06:35:27.790Z,99.16
2022-12-31T06:37:55.238Z,99.59
2022-12-31T06:40:22.688Z,98.85
2022-12-31T06:42:57.804Z,100.00
2022-12-31T06:45:28.199Z,100.00
2022-12-31T06:47:55.692Z,100.00
2022-12-31T06:50:23.095Z,100.00
2022-12-31T06:52:50.531Z,100.00
2022-12-31T06:55:18.640Z,100.00
2022-12-31T06:57:46.561Z,100.00
2022-12-31T07:00:17.135Z,100.00
2022-12-31T07:03:05.589Z,100.00
2022-12-31T07:05:42.981Z,100.00
2022-12-31T07:08:31.647Z,100.00
2022-12-31T07:11:06.086Z,98.64
2022-12-31T07:13:57.535Z,99.79
2022-12-31T07:16:36.854Z,100.00
2022-12-31T07:19:18.312Z,98.24
2022-12-31T07:21:46.251Z,98.26
2022-12-31T07:24:14.839Z,98.63
2022-12-31T07:26:59.559Z,98.31
2022-12-31T07:29:40.127Z,97.40
2022-12-31T07:32:19.437Z,100.00
2022-12-31T07:34:52.954Z,98.87
2022-12-31T07:37:28.507Z,98.30
2022-12-31T07:40:04.412Z,98.21
2022-12-31T07:42:39.900Z,96.58
2022-12-31T07:45:17.638Z,96.84
2022-12-31T07:47:47.074Z,97.05
2022-12-31T07:50:17.620Z,98.79
2022-12-31T07:52:45.843Z,99.11
2022-12-31T07:55:13.478Z,98.38
2022-12-31T07:57:50.374Z,96.64
2022-12-31T08:00:18.751Z,96.04
2022-12-31T08:03:03.295Z,94.86
2022-12-31T08:05:34.638Z,96.28
2022-12-31T08:08:14.753Z,97.23
2022-12-31T08:10:54.396Z,93.73
2022-12-31T08:13:22.182Z,95.59
2022-12-31T08:15:50.257Z,95.48
2022-12-31T08:18:19.438Z,96.39
2022-12-31T08:20:56.534Z,96.58
2022-12-31T08:23:29.392Z,97.33
2022-12-31T08:26:12.377Z,96.18
2022-12-31T08:28:54.733Z,95.58
2022-12-31T08:31:28.365Z,95.86
2022-12-31T08:34:06.172Z,94.76
2022-12-31T08:36:44.524Z,95.51
2022-12-31T08:39:24.088Z,96.77
2022-12-31T08:41:55.941Z,95.67
2022-12-31T08:44:30.244Z,96.17
2022-12-31T08:47:06.895Z,95.17
2022-12-31T08:49:36.825Z,94.25
2022-12-31T08:52:04.864Z,93.13
2022-12-31T08:54:32.751Z,93.29
2022-12-31T08:57:10.426Z,92.61
2022-12-31T08:59:48.672Z,93.57
2022-12-31T09:02:48.286Z,90.73
2022-12-31T09:05:23.410Z,90.09
2022-12-31T09:08:03.262Z,90.97
2022-12-31T09:10:34.362Z,94.22
2022-12-31T09:13:22.020Z,93.61
2022-12-31T09:15:58.308Z,93.07
2022-12-31T09:18:32.823Z,91.43
2022-12-31T09:21:02.355Z,91.71
2022-12-31T09:23:30.247Z,91.40
2022-12-31T09:26:05.694Z,91.38
2022-12-31T09:28:42.849Z,91.02
2022-12-31T09:31:17.334Z,90.98
2022-12-31T09:33:51.306Z,87.35
2022-12-31T09:36:26.801Z,87.42
2022-12-31T09:39:03.656Z,85.41
2022-12-31T09:42:09.600Z,85.21
2022-12-31T09:44:54.649Z,83.01
2022-12-31T09:47:57.869Z,85.12
2022-12-31T09:50:40.103Z,84.12
2022-12-31T09:53:35.963Z,83.30
2022-12-31T09:56:12.012Z,83.93
2022-12-31T09:58:46.337Z,81.95
2022-12-31T10:01:27.150Z,83.45
2022-12-31T10:04:16.679Z,83.90
2022-12-31T10:06:52.988Z,87.86
2022-12-31T10:09:38.004Z,87.75
2022-12-31T10:12:38.822Z,86.24
2022-12-31T10:15:36.589Z,89.06
2022-12-31T10:18:14.663Z,87.02
2022-12-31T10:20:51.307Z,86.00
2022-12-31T10:23:27.307Z,90.06
2022-12-31T10:26:22.605Z,86.69
2022-12-31T10:28:56.075Z,87.18
2022-12-31T10:31:41.631Z,89.52
2022-12-31T10:34:16.158Z,89.79
2022-12-31T10:36:53.845Z,88.31
2022-12-31T10:39:33.037Z,89.97
2022-12-31T10:42:46.276Z,91.28
2022-12-31T10:45:39.493Z,95.02
2022-12-31T10:48:57.193Z,94.09
2022-12-31T10:52:10.559Z,94.66
2022-12-31T10:54:55.435Z,94.23
2022-12-31T10:57:48.147Z,94.41
2022-12-31T11:00:17.934Z,96.35
2022-12-31T11:03:32.819Z,93.21
2022-12-31T11:06:37.140Z,94.98
2022-12-31T11:09:41.919Z,93.42
2022-12-31T11:12:25.449Z,91.36
2022-12-31T11:15:12.375Z,90.40
2022-12-31T11:17:52.685Z,92.03
2022-12-31T11:20:38.591Z,92.35
2022-12-31T11:23:21.916Z,93.67
2022-12-31T11:26:01.566Z,91.40
2022-12-31T11:28:46.343Z,90.88
2022-12-31T11:31:28.415Z,92.26
2022-12-31T11:34:15.442Z,91.11
2022-12-31T11:36:52.505Z,91.07
2022-12-31T11:39:40.573Z,90.84
2022-12-31T11:42:21.035Z,90.32
2022-12-31T11:44:56.363Z,90.26
2022-12-31T11:48:20.251Z,93.16
2022-12-31T11:50:43.156Z,88.74
2022-12-31T11:53:35.595Z,89.90
2022-12-31T11:56:13.679Z,89.16
2022-12-31T11:58:45.477Z,90.00
2022-12-31T12:01:16.703Z,88.53
2022-12-31T12:03:46.522Z,88.73
2022-12-31T12:06:15.984Z,88.57
2022-12-31T12:08:45.103Z,85.84
2022-12-31T12:11:19.845Z,85.85
2022-12-31T12:13:47.690Z,86.10
2022-12-31T12:16:15.907Z,85.80
2022-12-31T12:18:47.055Z,85.98
2022-12-31T12:21:17.010Z,84.96
2022-12-31T12:23:55.514Z,83.67
2022-12-31T12:26:35.940Z,84.84
2022-12-31T12:29:11.117Z,85.14
2022-12-31T12:31:39.008Z,85.44
2022-12-31T12:34:23.692Z,85.53
2022-12-31T12:36:51.144Z,84.46
2022-12-31T12:39:22.298Z,83.59
2022-12-31T12:42:01.376Z,83.31
2022-12-31T12:44:28.753Z,84.77
2022-12-31T12:46:56.745Z,83.35
2022-12-31T12:49:28.288Z,82.21
2022-12-31T12:52:10.658Z,82.66
2022-12-31T12:54:48.559Z,83.34
2022-12-31T12:57:25.281Z,82.21
2022-12-31T13:00:10.394Z,83.31
2022-12-31T13:03:02.518Z,83.16
2022-12-31T13:05:46.429Z,83.06
2022-12-31T13:08:27.767Z,83.22
2022-12-31T13:11:17.864Z,81.83
2022-12-31T13:13:51.951Z,81.79
2022-12-31T13:16:25.850Z,81.36
2022-12-31T13:19:02.350Z,81.86
2022-12-31T13:21:41.650Z,81.33
2022-12-31T13:24:20.269Z,81.94
2022-12-31T13:26:53.932Z,82.73
2022-12-31T13:29:26.734Z,82.91
2022-12-31T13:31:57.520Z,82.12
2022-12-31T13:34:29.490Z,82.64
2022-12-31T13:37:04.260Z,82.99
2022-12-31T13:39:37.123Z,82.43
2022-12-31T13:42:11.108Z,82.76
2022-12-31T13:44:42.733Z,81.51
2022-12-31T13:47:14.763Z,80.63
2022-12-31T13:49:47.545Z,81.40
2022-12-31T13:52:25.587Z,81.73
2022-12-31T13:54:56.988Z,81.61
2022-12-31T13:57:42.356Z,80.38
2022-12-31T14:00:20.512Z,80.55
2022-12-31T14:02:57.123Z,79.62
2022-12-31T14:05:30.296Z,80.58
2022-12-31T14:08:02.374Z,81.19
2022-12-31T14:10:42.209Z,81.23
2022-12-31T14:13:34.340Z,82.10
2022-12-31T14:16:12.587Z,82.15
2022-12-31T14:18:48.656Z,81.42
2022-12-31T14:21:24.342Z,81.00
2022-12-31T14:24:00.640Z,79.52
2022-12-31T14:26:32.009Z,79.83
2022-12-31T14:29:07.186Z,80.04
2022-12-31T14:31:56.040Z,80.18
2022-12-31T14:34:33.454Z,79.92
2022-12-31T14:37:05.559Z,79.96
2022-12-31T14:39:46.679Z,80.27
2022-12-31T14:42:22.888Z,81.77
2022-12-31T14:45:05.522Z,81.07
2022-12-31T14:47:43.702Z,81.54
2022-12-31T14:50:15.224Z,79.94
2022-12-31T14:52:51.588Z,81.27
2022-12-31T14:55:33.650Z,80.74
2022-12-31T14:58:27.302Z,81.12
2022-12-31T15:00:55.635Z,80.16
2022-12-31T15:03:27.347Z,79.77
2022-12-31T15:06:00.216Z,80.04
2022-12-31T15:08:41.794Z,79.35
2022-12-31T15:11:24.910Z,79.06
2022-12-31T15:14:16.156Z,78.64
2022-12-31T15:16:55.043Z,80.92
2022-12-31T15:20:14.940Z,80.38
2022-12-31T15:22:47.258Z,81.34
2022-12-31T15:25:28.688Z,79.95
2022-12-31T15:27:59.686Z,79.96
2022-12-31T15:30:38.729Z,80.65
2022-12-31T15:33:10.724Z,80.96
2022-12-31T15:35:51.016Z,80.40
2022-12-31T15:38:31.263Z,80.57
2022-12-31T15:40:59.730Z,79.86
2022-12-31T15:43:38.414Z,80.58
2022-12-31T15:46:15.384Z,81.04
2022-12-31T15:48:49.012Z,81.45
2022-12-31T15:51:24.161Z,81.28
2022-12-31T15:53:54.710Z,80.36
2022-12-31T15:56:31.104Z,81.72
2022-12-31T15:59:02.654Z,83.10
2022-12-31T16:01:33.786Z,81.49
2022-12-31T16:04:05.561Z,83.71
2022-12-31T16:06:36.626Z,81.20
2022-12-31T16:09:07.521Z,82.38
2022-12-31T16:11:37.995Z,82.52
2022-12-31T16:14:07.054Z,81.44
2022-12-31T16:16:35.963Z,82.31
2022-12-31T16:19:03.383Z,80.32
2022-12-31T16:21:33.634Z,79.80
2022-12-31T16:24:02.937Z,81.67
2022-12-31T16:26:34.829Z,80.94
2022-12-31T16:29:04.301Z,80.33
2022-12-31T16:31:33.276Z,80.20
2022-12-31T16:34:05.967Z,81.98
2022-12-31T16:36:33.557Z,81.62
2022-12-31T16:39:24.328Z,81.92
2022-12-31T16:41:53.022Z,82.46
2022-12-31T16:44:27.612Z,81.20
2022-12-31T16:47:00.033Z,83.24
2022-12-31T16:49:30.197Z,82.62
2022-12-31T16:52:03.402Z,81.41
2022-12-31T16:54:33.542Z,81.88
2022-12-31T16:57:01.304Z,81.78
2022-12-31T16:59:35.450Z,81.74
2022-12-31T17:02:10.804Z,81.00
2022-12-31T17:04:43.228Z,81.75
2022-12-31T17:07:26.764Z,81.56
2022-12-31T17:10:03.295Z,82.09
2022-12-31T17:12:46.780Z,81.79
2022-12-31T17:15:23.337Z,83.24
2022-12-31T17:17:55.901Z,83.03
2022-12-31T17:20:27.121Z,81.40
2022-12-31T17:22:57.544Z,81.35
2022-12-31T17:25:26.730Z,81.05
2022-12-31T17:27:58.081Z,80.92
2022-12-31T17:30:41.370Z,80.76
2022-12-31T17:33:30.927Z,79.95
2022-12-31T17:36:15.213Z,79.50
2022-12-31T17:38:43.280Z,79.08
2022-12-31T17:41:24.181Z,79.84
2022-12-31T17:43:55.267Z,79.86
2022-12-31T17:46:24.947Z,80.10
2022-12-31T17:48:58.576Z,79.44
2022-12-31T17:51:26.076Z,78.56
2022-12-31T17:53:53.495Z,79.21
2022-12-31T17:56:21.450Z,79.46
2022-12-31T17:58:51.811Z,79.67
2022-12-31T18:01:21.245Z,80.90
2022-12-31T18:03:49.899Z,80.05
2022-12-31T18:06:19.960Z,79.64
2022-12-31T18:08:47.738Z,79.15
2022-12-31T18:11:18.895Z,79.38
2022-12-31T18:13:46.909Z,80.29
2022-12-31T18:16:14.930Z,80.60
2022-12-31T18:18:45.252Z,79.40
2022-12-31T18:21:20.623Z,79.77
2022-12-31T18:23:49.317Z,79.70
2022-12-31T18:26:18.390Z,78.92
2022-12-31T18:28:46.124Z,78.44
2022-12-31T18:31:17.380Z,79.92
2022-12-31T18:33:46.846Z,79.31
2022-12-31T18:36:15.930Z,80.00
2022-12-31T18:38:44.925Z,79.48
2022-12-31T18:41:17.811Z,78.80
2022-12-31T18:43:45.372Z,79.54
2022-12-31T18:46:14.418Z,78.98
2022-12-31T18:48:42.253Z,79.76
2022-12-31T18:51:13.471Z,80.23
2022-12-31T18:53:40.917Z,80.51
2022-12-31T18:56:13.607Z,80.69
2022-12-31T18:58:41.064Z,79.71
2022-12-31T19:01:26.055Z,80.05
2022-12-31T19:03:54.088Z,80.01
2022-12-31T19:06:21.505Z,78.23
2022-12-31T19:08:49.072Z,78.10
2022-12-31T19:11:18.774Z,79.11
2022-12-31T19:13:46.185Z,78.88
2022-12-31T19:16:14.112Z,79.43
2022-12-31T19:18:42.440Z,80.60
2022-12-31T19:21:16.634Z,80.24
2022-12-31T19:23:44.030Z,79.97
2022-12-31T19:26:16.158Z,79.79
2022-12-31T19:28:45.917Z,80.78
2022-12-31T19:31:13.965Z,81.72
2022-12-31T19:33:41.507Z,81.61
2022-12-31T19:36:15.561Z,81.09
2022-12-31T19:38:43.025Z,80.76
2022-12-31T19:41:15.996Z,80.66
2022-12-31T19:43:45.404Z,79.19
2022-12-31T19:46:14.447Z,80.81
2022-12-31T19:48:41.977Z,80.87
2022-12-31T19:51:10.683Z,81.43
2022-12-31T19:53:38.095Z,80.46
2022-12-31T19:56:06.362Z,79.76
2022-12-31T19:58:33.779Z,81.28
2022-12-31T20:01:03.468Z,80.75
2022-12-31T20:03:32.455Z,79.89
2022-12-31T20:06:06.175Z,80.23
2022-12-31T20:08:34.155Z,80.74
2022-12-31T20:11:08.298Z,79.95
2022-12-31T20:13:35.809Z,78.70
2022-12-31T20:16:07.721Z,78.50
2022-12-31T20:18:37.353Z,79.21
2022-12-31T20:21:05.075Z,78.08
2022-12-31T20:23:34.908Z,77.40
2022-12-31T20:26:03.121Z,78.35
2022-12-31T20:28:31.024Z,79.61
2022-12-31T20:30:58.466Z,77.38
2022-12-31T20:33:27.217Z,77.10
2022-12-31T20:35:54.597Z,77.21
2022-12-31T20:38:22.022Z,76.31
2022-12-31T20:40:49.408Z,76.60
2022-12-31T20:43:16.831Z,76.93
2022-12-31T20:45:44.778Z,77.90
2022-12-31T20:48:12.265Z,76.66
2022-12-31T20:50:41.054Z,76.78
2022-12-31T20:53:08.494Z,75.85
2022-12-31T20:55:38.589Z,76.38
2022-12-31T20:58:06.302Z,75.59
2022-12-31T21:00:33.740Z,75.86
2022-12-31T21:03:14.320Z,74.97
2022-12-31T21:05:51.386Z,75.00
2022-12-31T21:08:19.300Z,75.00
2022-12-31T21:10:48.715Z,74.79
2022-12-31T21:13:15.195Z,76.71
2022-12-31T21:15:43.223Z,73.76
2022-12-31T21:18:10.673Z,73.73
2022-12-31T21:20:38.068Z,73.76
2022-12-31T21:23:06.794Z,74.29
2022-12-31T21:25:34.182Z,73.81
2022-12-31T21:28:01.595Z,73.30
2022-12-31T21:30:29.004Z,73.60
2022-12-31T21:32:56.364Z,73.50
2022-12-31T21:38:12.464Z,73.89
2022-12-31T21:40:39.924Z,73.75
2022-12-31T21:43:07.362Z,74.92
2022-12-31T21:45:35.102Z,73.05
2022-12-31T21:48:22.087Z,74.50
2022-12-31T21:50:51.227Z,73.18
2022-12-31T21:53:24.833Z,72.96
2022-12-31T21:56:11.504Z,74.12
2022-12-31T21:58:40.472Z,73.55
2022-12-31T22:01:26.828Z,73.33
2022-12-31T22:03:54.380Z,73.65
2022-12-31T22:06:24.682Z,72.75
2022-12-31T22:08:55.791Z,73.07
2022-12-31T22:11:25.171Z,73.32
2022-12-31T22:13:53.390Z,73.67
2022-12-31T22:16:21.839Z,72.84
2022-12-31T22:18:50.004Z,73.28
2022-12-31T22:21:20.538Z,72.45
2022-12-31T22:23:49.897Z,73.29
2022-12-31T22:26:21.190Z,73.06
2022-12-31T22:28:49.153Z,73.68
2022-12-31T22:31:18.912Z,73.95
2022-12-31T22:33:46.600Z,74.91
2022-12-31T22:36:16.538Z,76.75
2022-12-31T22:38:44.284Z,72.81
2022-12-31T22:41:13.470Z,75.49
2022-12-31T22:43:45.779Z,74.51
2022-12-31T22:46:15.811Z,73.54
2022-12-31T22:48:43.683Z,75.04
2022-12-31T22:51:12.764Z,71.68
2022-12-31T22:53:41.472Z,75.24
2022-12-31T22:56:10.030Z,72.45
2022-12-31T22:58:38.032Z,70.50
2022-12-31T23:01:08.123Z,70.67
2022-12-31T23:03:36.045Z,70.33
2022-12-31T23:06:03.529Z,71.60
2022-12-31T23:08:30.980Z,71.70
2022-12-31T23:11:05.458Z,71.59
2022-12-31T23:13:55.662Z,70.69
2022-12-31T23:16:44.127Z,72.42
2022-12-31T23:19:29.523Z,70.88
2022-12-31T23:22:15.307Z,71.00
2022-12-31T23:24:43.097Z,70.00
2022-12-31T23:27:11.236Z,70.78
2022-12-31T23:29:46.112Z,69.69
2022-12-31T23:32:16.801Z,69.58
2022-12-31T23:34:45.264Z,69.52
2022-12-31T23:37:13.188Z,70.57
2022-12-31T23:39:40.674Z,70.13
2022-12-31T23:42:08.234Z,71.32
2022-12-31T23:44:35.674Z,69.26
2022-12-31T23:47:03.130Z,70.18
2022-12-31T23:49:32.041Z,69.41
2022-12-31T23:51:59.486Z,70.32
2022-12-31T23:54:26.997Z,70.31
2022-12-31T23:56:54.389Z,69.52
2022-12-31T23:59:22.010Z,68.66
